Time;durP1;ratioP1;P1;durP2;ratioP2;P2;SDS_P1;SDS_P2;PMS_P1;PMS_P2;Temp;Humidity;BMP_temperature;BMP_pressure;BME280_temperature;BME280_humidity;BME280_pressure;Samples;Min_cycle;Max_cycle;Signal;HPM_P1;HPM_P2
2023/10/26 00:01:21;;;;;;;0.40;0.40;;;11.10;99.90;;;;;;4935560;28;20199;-60
2023/10/26 00:03:48;;;;;;;0.30;0.30;;;11.10;99.90;;;;;;4931271;29;20671;-60
2023/10/26 00:06:15;;;;;;;0.30;0.30;;;11.10;99.90;;;;;;4935425;29;20197;-63
2023/10/26 00:08:42;;;;;;;0.30;0.30;;;11.10;99.90;;;;;;4965359;28;20195;-61
2023/10/26 00:11:09;;;;;;;0.33;0.33;;;11.20;99.90;;;;;;4950420;28;20202;-61
2023/10/26 00:13:36;;;;;;;0.37;0.37;;;11.20;99.90;;;;;;4947851;29;20210;-61
2023/10/26 00:16:03;;;;;;;0.30;0.30;;;11.20;99.90;;;;;;4949646;28;20281;-66
2023/10/26 00:18:30;;;;;;;0.30;0.30;;;11.10;99.90;;;;;;4948693;28;20307;-61
2023/10/26 00:21:00;;;;;;;0.33;0.33;;;11.00;99.90;;;;;;4948516;28;20250;-62
2023/10/26 00:23:27;;;;;;;0.40;0.40;;;11.00;99.90;;;;;;4948185;28;20302;-62
2023/10/26 00:25:54;;;;;;;0.30;0.30;;;11.10;99.90;;;;;;4927591;28;20401;-62
2023/10/26 00:28:21;;;;;;;0.40;0.40;;;11.00;99.90;;;;;;4949142;28;20294;-62
2023/10/26 00:30:48;;;;;;;0.30;0.30;;;11.00;99.90;;;;;;4948116;28;20261;-62
2023/10/26 00:33:15;;;;;;;0.37;0.37;;;11.00;99.90;;;;;;4950340;28;20199;-62
2023/10/26 00:35:42;;;;;;;0.40;0.40;;;11.00;99.90;;;;;;4938707;29;20525;-63
2023/10/26 00:38:10;;;;;;;0.30;0.30;;;11.00;99.90;;;;;;4960595;28;20281;-62
2023/10/26 00:40:37;;;;;;;0.30;0.30;;;11.00;99.90;;;;;;4945861;29;20287;-62
2023/10/26 00:43:07;;;;;;;0.30;0.30;;;11.00;99.90;;;;;;4951378;29;20238;-71
2023/10/26 00:45:35;;;;;;;0.33;0.33;;;11.00;99.90;;;;;;4943208;28;20328;-61
2023/10/26 00:48:03;;;;;;;0.30;0.30;;;11.00;99.90;;;;;;4935691;29;20195;-63
2023/10/26 00:50:31;;;;;;;0.30;0.30;;;11.00;99.90;;;;;;4953122;28;20616;-62
2023/10/26 00:53:00;;;;;;;0.30;0.30;;;11.00;99.90;;;;;;4949363;28;20202;-68
2023/10/26 00:55:27;;;;;;;0.40;0.40;;;11.00;99.90;;;;;;4948684;28;20320;-62
2023/10/26 00:57:54;;;;;;;0.33;0.33;;;11.00;99.90;;;;;;4948880;28;20199;-61
2023/10/26 01:00:22;;;;;;;0.30;0.30;;;10.90;99.90;;;;;;4945738;28;20210;-61
2023/10/26 01:02:49;;;;;;;0.40;0.40;;;10.90;99.90;;;;;;4946394;28;20215;-61
2023/10/26 01:05:16;;;;;;;0.40;0.40;;;10.90;99.90;;;;;;4948315;28;20322;-62
2023/10/26 01:07:43;;;;;;;0.30;0.30;;;10.90;99.90;;;;;;4964631;28;20207;-60
2023/10/26 01:10:11;;;;;;;0.40;0.40;;;10.80;99.90;;;;;;4948178;28;20194;-61
2023/10/26 01:12:38;;;;;;;1.07;1.07;;;10.80;99.90;;;;;;4944561;28;20250;-60
2023/10/26 01:15:06;;;;;;;0.30;0.30;;;10.80;99.90;;;;;;4947615;28;20229;-62
2023/10/26 01:17:35;;;;;;;0.40;0.40;;;10.80;99.90;;;;;;4931494;28;20234;-63
2023/10/26 01:20:04;;;;;;;0.30;0.30;;;10.80;99.90;;;;;;4948030;28;20250;-61
2023/10/26 01:22:32;;;;;;;0.30;0.30;;;10.90;99.90;;;;;;4947381;28;20199;-61
2023/10/26 01:24:59;;;;;;;0.30;0.30;;;10.90;99.90;;;;;;4939782;28;20222;-61
2023/10/26 01:27:26;;;;;;;0.30;0.30;;;10.80;99.90;;;;;;4926535;29;20575;-68
2023/10/26 01:29:53;;;;;;;0.30;0.30;;;10.70;99.90;;;;;;4947695;28;20226;-62
2023/10/26 01:32:20;;;;;;;0.40;0.40;;;10.80;99.90;;;;;;4948134;28;20195;-62
2023/10/26 01:34:47;;;;;;;0.30;0.30;;;10.80;99.90;;;;;;4945188;28;20199;-61
2023/10/26 01:37:14;;;;;;;0.40;0.40;;;10.80;99.90;;;;;;4944087;28;20213;-61
2023/10/26 01:39:41;;;;;;;0.40;0.40;;;10.70;99.90;;;;;;4934479;29;20207;-61
2023/10/26 01:42:10;;;;;;;0.33;0.33;;;10.70;99.90;;;;;;4932955;29;20615;-61
2023/10/26 01:44:39;;;;;;;0.30;0.30;;;10.60;99.90;;;;;;4947524;28;20314;-61
2023/10/26 01:47:06;;;;;;;0.30;0.30;;;10.60;99.90;;;;;;4930424;29;20283;-61
2023/10/26 01:49:33;;;;;;;0.40;0.40;;;10.70;99.90;;;;;;4962120;28;20681;-62
2023/10/26 01:52:00;;;;;;;0.30;0.30;;;10.70;99.90;;;;;;4947769;28;20199;-62
2023/10/26 01:54:27;;;;;;;0.60;0.60;;;10.60;99.90;;;;;;4928699;29;20207;-61
2023/10/26 01:56:54;;;;;;;0.40;0.40;;;10.60;99.90;;;;;;4948152;28;20214;-61
2023/10/26 01:59:21;;;;;;;0.30;0.30;;;10.60;99.90;;;;;;4946789;28;20237;-61
2023/10/26 02:05:49;;;;;;;0.50;0.50;;;10.70;99.90;;;;;;4944236;28;20369;-61
2023/10/26 02:08:16;;;;;;;0.30;0.30;;;10.60;99.90;;;;;;4929158;28;20607;-61
2023/10/26 02:10:44;;;;;;;0.20;0.20;;;10.60;99.90;;;;;;4947605;28;20194;-61
2023/10/26 02:13:11;;;;;;;0.40;0.40;;;10.50;99.90;;;;;;4958992;28;20203;-61
2023/10/26 02:15:38;;;;;;;0.40;0.40;;;10.60;99.90;;;;;;4946069;28;20204;-61
2023/10/26 02:18:05;;;;;;;0.40;0.40;;;10.50;99.90;;;;;;4933888;29;20680;-62
2023/10/26 02:20:32;;;;;;;0.30;0.30;;;10.70;99.90;;;;;;4933310;29;20203;-62
2023/10/26 02:22:59;;;;;;;0.30;0.30;;;10.50;99.90;;;;;;4945735;28;20199;-61
2023/10/26 02:25:26;;;;;;;0.40;0.40;;;10.50;99.90;;;;;;4962191;28;20207;-61
2023/10/26 02:27:53;;;;;;;0.40;0.40;;;10.60;99.90;;;;;;4962821;28;20247;-61
2023/10/26 02:30:20;;;;;;;0.30;0.30;;;10.50;99.90;;;;;;4960977;28;20614;-61
2023/10/26 02:32:47;;;;;;;0.40;0.40;;;10.40;99.90;;;;;;4946752;28;20199;-61
2023/10/26 02:35:15;;;;;;;0.40;0.40;;;10.50;99.90;;;;;;4950489;28;20659;-61
2023/10/26 02:37:42;;;;;;;0.40;0.40;;;10.50;99.90;;;;;;4953408;28;20199;-60
2023/10/26 02:40:09;;;;;;;0.40;0.40;;;10.50;99.90;;;;;;4947301;28;20257;-61
2023/10/26 02:42:38;;;;;;;0.30;0.30;;;10.50;99.90;;;;;;4933900;29;20235;-61
2023/10/26 02:45:09;;;;;;;0.40;0.40;;;10.60;99.90;;;;;;4951356;28;20309;-61
2023/10/26 02:47:37;;;;;;;0.40;0.40;;;10.60;99.90;;;;;;4935042;29;20203;-61
2023/10/26 02:50:06;;;;;;;0.30;0.30;;;10.50;99.90;;;;;;4931256;28;20940;-61
2023/10/26 02:52:33;;;;;;;0.40;0.40;;;10.50;99.90;;;;;;4949547;28;20191;-61
2023/10/26 02:55:00;;;;;;;0.40;0.40;;;10.50;99.90;;;;;;4947972;28;20214;-61
2023/10/26 02:57:27;;;;;;;0.37;0.37;;;10.60;99.90;;;;;;4931415;28;20313;-61
2023/10/26 02:59:54;;;;;;;0.40;0.40;;;10.50;99.90;;;;;;4949769;28;20628;-62
2023/10/26 03:02:21;;;;;;;0.30;0.30;;;10.50;99.90;;;;;;4948720;28;20218;-61
2023/10/26 03:04:48;;;;;;;0.30;0.30;;;10.50;99.90;;;;;;4948848;28;20696;-61
2023/10/26 03:07:22;;;;;;;0.40;0.40;;;10.50;99.90;;;;;;4948289;28;20286;-61
2023/10/26 03:09:52;;;;;;;0.40;0.40;;;10.60;99.90;;;;;;4935571;29;20273;-66
2023/10/26 03:12:20;;;;;;;0.40;0.40;;;10.60;99.90;;;;;;4948475;28;20214;-61
2023/10/26 03:14:47;;;;;;;0.40;0.40;;;10.60;99.90;;;;;;4931900;28;20205;-62
2023/10/26 03:17:16;;;;;;;0.30;0.30;;;10.60;99.90;;;;;;4932333;28;20195;-62
2023/10/26 03:19:43;;;;;;;0.40;0.40;;;10.60;99.90;;;;;;4946092;28;20453;-61
2023/10/26 03:22:10;;;;;;;0.40;0.40;;;10.50;99.90;;;;;;4948712;28;20198;-61
2023/10/26 03:24:38;;;;;;;0.40;0.40;;;10.60;99.90;;;;;;4962726;28;20222;-61
2023/10/26 03:27:06;;;;;;;0.40;0.40;;;10.70;99.90;;;;;;4948171;28;20183;-61
2023/10/26 03:29:33;;;;;;;0.40;0.40;;;10.70;99.90;;;;;;4946037;28;20695;-61
2023/10/26 03:32:00;;;;;;;0.40;0.40;;;10.70;99.90;;;;;;4948775;28;20294;-61
2023/10/26 03:34:27;;;;;;;0.40;0.40;;;10.70;99.90;;;;;;4936684;29;20210;-61
2023/10/26 03:36:54;;;;;;;0.30;0.30;;;10.70;99.90;;;;;;4949714;28;20258;-62
2023/10/26 03:39:21;;;;;;;0.40;0.40;;;10.70;99.90;;;;;;4949621;28;20203;-61
2023/10/26 03:41:48;;;;;;;0.40;0.40;;;10.80;99.90;;;;;;4948648;28;20261;-78
2023/10/26 03:44:15;;;;;;;0.40;0.40;;;10.70;99.90;;;;;;4949805;28;20682;-61
2023/10/26 03:46:42;;;;;;;0.30;0.30;;;10.70;99.90;;;;;;4949779;28;20187;-62
2023/10/26 03:49:09;;;;;;;0.87;0.87;;;10.70;99.90;;;;;;4946771;28;20187;-62
2023/10/26 03:51:36;;;;;;;0.40;0.40;;;10.70;99.90;;;;;;4929893;28;20199;-62
2023/10/26 03:54:03;;;;;;;0.40;0.40;;;10.90;99.90;;;;;;4948649;28;20199;-62
2023/10/26 03:56:30;;;;;;;0.30;0.30;;;10.90;99.90;;;;;;4953923;28;20191;-62
2023/10/26 03:58:57;;;;;;;0.40;0.40;;;10.90;99.90;;;;;;4945389;28;20194;-62
2023/10/26 04:01:24;;;;;;;0.37;0.37;;;11.00;99.90;;;;;;4949173;28;20265;-61
2023/10/26 04:03:51;;;;;;;0.40;0.40;;;10.80;99.90;;;;;;4949369;28;20203;-62
2023/10/26 04:06:18;;;;;;;0.30;0.30;;;10.90;99.90;;;;;;4949506;28;20702;-62
2023/10/26 04:08:45;;;;;;;0.30;0.30;;;10.90;99.90;;;;;;4949342;28;20194;-63
2023/10/26 04:11:18;;;;;;;0.20;0.20;;;10.90;99.90;;;;;;4949921;28;20195;-63
2023/10/26 04:13:45;;;;;;;0.20;0.20;;;10.90;99.90;;;;;;4949690;28;20218;-61
2023/10/26 04:16:12;;;;;;;0.40;0.40;;;10.90;99.90;;;;;;4947203;28;20198;-69
2023/10/26 04:18:39;;;;;;;0.30;0.30;;;10.80;99.90;;;;;;4950336;28;20197;-62
2023/10/26 04:21:06;;;;;;;0.40;0.40;;;10.80;99.90;;;;;;4947067;28;20254;-63
2023/10/26 04:23:33;;;;;;;0.33;0.33;;;10.80;99.90;;;;;;4947699;28;20613;-62
2023/10/26 04:26:00;;;;;;;0.40;0.40;;;10.90;99.90;;;;;;4946271;28;20297;-61
2023/10/26 04:28:27;;;;;;;0.30;0.30;;;10.90;99.90;;;;;;4949756;28;20207;-63
2023/10/26 04:30:54;;;;;;;0.40;0.40;;;10.70;99.90;;;;;;4930086;28;20214;-62
2023/10/26 04:33:21;;;;;;;0.40;0.40;;;10.80;99.90;;;;;;4947000;28;20187;-61
2023/10/26 04:35:48;;;;;;;0.30;0.30;;;10.80;99.90;;;;;;4930099;29;20286;-62
2023/10/26 04:38:15;;;;;;;0.40;0.40;;;10.70;99.90;;;;;;4947889;28;20255;-62
2023/10/26 04:40:43;;;;;;;0.40;0.40;;;10.80;99.90;;;;;;4946798;28;20211;-61
2023/10/26 04:43:10;;;;;;;0.40;0.40;;;10.80;99.90;;;;;;4952849;28;20491;-61
2023/10/26 04:45:37;;;;;;;0.40;0.40;;;10.90;99.90;;;;;;4949986;28;20215;-61
2023/10/26 04:48:04;;;;;;;0.30;0.30;;;11.00;99.90;;;;;;4948178;28;20471;-62
2023/10/26 04:50:32;;;;;;;0.30;0.30;;;10.90;99.90;;;;;;4962812;28;20191;-62
2023/10/26 04:52:59;;;;;;;0.30;0.30;;;10.90;99.90;;;;;;4946661;28;20286;-65
2023/10/26 04:55:35;;;;;;;0.40;0.40;;;11.00;99.90;;;;;;4946865;28;20190;-61
2023/10/26 04:58:02;;;;;;;0.30;0.30;;;10.90;99.90;;;;;;4945738;28;20209;-62
2023/10/26 05:00:30;;;;;;;0.30;0.30;;;11.00;99.90;;;;;;4949108;28;20198;-62
2023/10/26 05:02:57;;;;;;;0.40;0.40;;;11.00;99.90;;;;;;4949708;28;20198;-62
2023/10/26 05:05:25;;;;;;;0.30;0.30;;;10.90;99.90;;;;;;4950431;29;20217;-63
2023/10/26 05:07:52;;;;;;;0.30;0.30;;;11.00;99.90;;;;;;4947340;28;20273;-62
2023/10/26 05:10:20;;;;;;;0.40;0.40;;;11.00;99.90;;;;;;4952304;28;20191;-60
2023/10/26 05:12:47;;;;;;;0.40;0.40;;;10.90;99.90;;;;;;4917208;29;20842;-60
2023/10/26 05:15:14;;;;;;;0.30;0.30;;;10.80;99.90;;;;;;4947341;28;20691;-61
2023/10/26 05:17:41;;;;;;;0.30;0.30;;;10.80;99.90;;;;;;4948478;28;20245;-61
2023/10/26 05:20:09;;;;;;;0.30;0.30;;;10.70;99.90;;;;;;4948286;28;20199;-61
2023/10/26 05:22:36;;;;;;;0.50;0.50;;;10.70;99.90;;;;;;4948053;28;20590;-62
2023/10/26 05:25:08;;;;;;;0.40;0.40;;;10.70;99.90;;;;;;4961178;28;20211;-66
2023/10/26 05:27:34;;;;;;;0.40;0.40;;;10.80;99.90;;;;;;4944424;28;20643;-62
2023/10/26 05:30:05;;;;;;;0.30;0.30;;;10.80;99.90;;;;;;4945219;28;20195;-63
2023/10/26 05:32:32;;;;;;;0.40;0.40;;;10.80;99.90;;;;;;4946988;28;20322;-61
2023/10/26 05:34:59;;;;;;;0.40;0.40;;;10.80;99.90;;;;;;4945916;28;20234;-61
2023/10/26 05:37:26;;;;;;;0.40;0.40;;;10.70;99.90;;;;;;4948916;28;20226;-61
2023/10/26 05:39:53;;;;;;;0.30;0.30;;;10.70;99.90;;;;;;4961751;28;20207;-61
2023/10/26 05:42:20;;;;;;;0.30;0.30;;;10.70;99.90;;;;;;4914387;28;20270;-61
2023/10/26 05:44:47;;;;;;;0.30;0.30;;;10.70;99.90;;;;;;4923599;29;20281;-61
2023/10/26 05:47:17;;;;;;;0.40;0.40;;;10.70;99.90;;;;;;4946195;28;20218;-63
2023/10/26 05:49:47;;;;;;;0.40;0.40;;;10.70;99.90;;;;;;4946356;28;20191;-61
2023/10/26 05:52:15;;;;;;;0.40;0.40;;;10.70;99.90;;;;;;4945619;28;20646;-61
2023/10/26 05:54:42;;;;;;;0.30;0.30;;;10.70;99.90;;;;;;4962211;28;20195;-62
2023/10/26 05:57:09;;;;;;;0.40;0.40;;;10.80;99.90;;;;;;4946616;28;20591;-62
2023/10/26 05:59:36;;;;;;;0.40;0.40;;;10.70;99.90;;;;;;4947801;28;20195;-61
2023/10/26 06:02:04;;;;;;;0.80;0.80;;;10.70;99.90;;;;;;4931021;29;20290;-62
2023/10/26 06:04:31;;;;;;;0.40;0.40;;;10.70;99.90;;;;;;4931419;28;20560;-61
2023/10/26 06:06:58;;;;;;;0.33;0.33;;;10.80;99.90;;;;;;4950391;28;20202;-61
2023/10/26 06:09:25;;;;;;;0.40;0.40;;;10.70;99.90;;;;;;4954938;28;20191;-61
2023/10/26 06:11:52;;;;;;;0.40;0.40;;;10.70;99.90;;;;;;4954558;28;20192;-62
2023/10/26 06:14:19;;;;;;;0.37;0.37;;;10.80;99.90;;;;;;4954770;28;20667;-75
2023/10/26 06:16:47;;;;;;;0.40;0.40;;;10.70;99.90;;;;;;4949838;28;20652;-63
2023/10/26 06:19:14;;;;;;;0.37;0.37;;;10.70;99.90;;;;;;4953113;28;20330;-60
2023/10/26 06:21:41;;;;;;;0.30;0.30;;;10.70;99.90;;;;;;4955781;28;20279;-60
2023/10/26 06:24:09;;;;;;;0.50;0.50;;;10.70;99.90;;;;;;4951147;28;20613;-61
2023/10/26 06:26:36;;;;;;;0.40;0.40;;;10.70;99.90;;;;;;4966305;28;20223;-63
2023/10/26 06:29:03;;;;;;;0.40;0.40;;;10.70;99.90;;;;;;4947859;28;20742;-60
2023/10/26 06:31:30;;;;;;;0.40;0.40;;;10.80;64.60;;;;;;4950292;28;20929;-60
2023/10/26 06:33:57;;;;;;;0.40;0.40;;;10.80;1.00;;;;;;4952051;28;20219;-60
2023/10/26 06:36:24;;;;;;;0.40;0.40;;;10.80;1.00;;;;;;4952723;28;20291;-60
2023/10/26 06:38:54;;;;;;;0.30;0.30;;;10.80;1.00;;;;;;4927981;29;20651;-60
2023/10/26 06:41:21;;;;;;;0.30;0.30;;;10.80;99.90;;;;;;4932407;28;20578;-60
2023/10/26 06:43:48;;;;;;;0.30;0.30;;;10.80;6.20;;;;;;4930787;29;20246;-63
2023/10/26 06:46:15;;;;;;;0.30;0.30;;;10.80;1.00;;;;;;4953225;28;20207;-62
2023/10/26 06:48:42;;;;;;;2.43;2.30;;;10.70;99.90;;;;;;4971448;28;20227;-60
2023/10/26 06:51:09;;;;;;;0.30;0.30;;;10.80;1.00;;;;;;4934501;28;20195;-61
2023/10/26 06:53:36;;;;;;;0.33;0.33;;;10.90;99.90;;;;;;4935235;28;20205;-60
2023/10/26 06:56:13;;;;;;;0.30;0.30;;;10.90;1.00;;;;;;4966547;28;20211;-60
2023/10/26 06:58:42;;;;;;;0.37;0.37;;;10.80;99.90;;;;;;4948951;28;20290;-61
2023/10/26 07:01:09;;;;;;;0.40;0.40;;;10.80;1.00;;;;;;4962903;28;20229;-73
2023/10/26 07:03:50;;;;;;;0.30;0.30;;;10.80;99.90;;;;;;4951604;28;20190;-62
2023/10/26 07:06:18;;;;;;;0.30;0.30;;;10.70;1.00;;;;;;4946678;28;20226;-68
2023/10/26 07:08:46;;;;;;;0.40;0.40;;;10.80;99.90;;;;;;4953381;28;20218;-61
2023/10/26 07:11:13;;;;;;;0.20;0.20;;;10.80;99.90;;;;;;4966887;28;20574;-60
2023/10/26 07:13:40;;;;;;;0.50;0.50;;;10.80;1.00;;;;;;4957160;28;20194;-60
2023/10/26 07:16:07;;;;;;;0.40;0.40;;;10.90;1.00;;;;;;4950393;28;20353;-61
2023/10/26 07:18:34;;;;;;;0.30;0.30;;;10.80;1.00;;;;;;4957873;28;20198;-62
2023/10/26 07:21:07;;;;;;;0.30;0.30;;;11.00;99.90;;;;;;4949457;28;20226;-61
2023/10/26 07:23:35;;;;;;;0.37;0.37;;;11.00;99.90;;;;;;4932962;28;20207;-62
2023/10/26 07:26:02;;;;;;;0.30;0.30;;;11.00;1.00;;;;;;4961132;28;20306;-64
2023/10/26 07:28:29;;;;;;;0.30;0.30;;;11.00;99.90;;;;;;4933372;28;20190;-62
2023/10/26 07:30:56;;;;;;;0.40;0.40;;;10.90;99.90;;;;;;4949831;28;20199;-62
2023/10/26 07:33:23;;;;;;;0.40;0.40;;;10.90;1.00;;;;;;4953662;28;20218;-61
2023/10/26 07:35:56;;;;;;;0.30;0.30;;;11.00;1.00;;;;;;4934267;28;20249;-63
2023/10/26 07:38:24;;;;;;;1.03;1.03;;;11.20;99.90;;;;;;4945543;28;20203;-62
2023/10/26 07:41:03;;;;;;;0.30;0.30;;;11.20;99.90;;;;;;4951623;28;20237;-61
2023/10/26 07:43:31;;;;;;;0.30;0.30;;;11.20;1.00;;;;;;4950130;28;20238;-61
2023/10/26 07:45:58;;;;;;;0.40;0.40;;;11.30;1.00;;;;;;4916825;28;20229;-61
2023/10/26 07:48:25;;;;;;;0.30;0.30;;;11.20;99.90;;;;;;4949705;28;20199;-63
2023/10/26 07:50:52;;;;;;;0.40;0.40;;;11.20;86.60;;;;;;4948092;28;20191;-61
2023/10/26 07:53:19;;;;;;;1.17;1.17;;;11.20;1.00;;;;;;4932290;28;20715;-60
2023/10/26 07:55:46;;;;;;;0.30;0.30;;;11.20;99.90;;;;;;4948154;28;20206;-61
2023/10/26 07:58:13;;;;;;;0.40;0.40;;;11.10;1.00;;;;;;4948398;28;20262;-62
2023/10/26 08:00:40;;;;;;;0.20;0.20;;;11.10;1.00;;;;;;4932868;28;20215;-61
2023/10/26 08:03:07;;;;;;;1.33;1.27;;;11.10;99.90;;;;;;4947375;28;20210;-60
2023/10/26 08:05:34;;;;;;;0.33;0.33;;;11.10;99.90;;;;;;4949559;28;20221;-61
2023/10/26 08:08:02;;;;;;;0.30;0.30;;;11.10;73.50;;;;;;4950137;28;20254;-62
2023/10/26 08:10:35;;;;;;;0.40;0.40;;;11.10;1.00;;;;;;4933148;29;20286;-62
2023/10/26 08:13:03;;;;;;;0.30;0.30;;;11.20;1.00;;;;;;4932715;29;20222;-61
2023/10/26 08:15:30;;;;;;;0.40;0.40;;;11.20;1.00;;;;;;4949030;28;20206;-61
2023/10/26 08:18:18;;;;;;;0.40;0.40;;;11.30;1.00;;;;;;4949778;28;20286;-61
2023/10/26 08:20:50;;;;;;;0.40;0.40;;;11.20;1.00;;;;;;4951490;28;20211;-63
2023/10/26 08:23:17;;;;;;;0.40;0.40;;;11.10;1.00;;;;;;4947482;28;20230;-62
2023/10/26 08:25:44;;;;;;;0.33;0.33;;;11.00;1.00;;;;;;4961057;28;20268;-66
2023/10/26 08:28:11;;;;;;;0.40;0.40;;;11.00;1.00;;;;;;4929624;29;20207;-62
2023/10/26 08:30:38;;;;;;;0.30;0.30;;;11.10;1.00;;;;;;4948256;28;20229;-62
2023/10/26 08:33:06;;;;;;;0.40;0.40;;;11.00;1.00;;;;;;4946168;28;20274;-62
2023/10/26 08:35:34;;;;;;;0.40;0.40;;;11.00;1.00;;;;;;4948864;28;20257;-62
2023/10/26 08:38:01;;;;;;;0.40;0.40;;;11.00;1.00;;;;;;4961979;28;20293;-62
2023/10/26 08:40:31;;;;;;;0.40;0.40;;;11.00;1.00;;;;;;4929621;29;20281;-62
2023/10/26 08:43:00;;;;;;;0.40;0.40;;;11.00;1.00;;;;;;4947475;28;20727;-62
2023/10/26 08:45:29;;;;;;;0.33;0.33;;;10.90;99.90;;;;;;4950171;28;20719;-62
2023/10/26 08:47:57;;;;;;;0.30;0.30;;;11.00;1.00;;;;;;4948204;28;20266;-62
2023/10/26 08:50:24;;;;;;;0.40;0.40;;;10.90;99.90;;;;;;4943552;28;20202;-62
2023/10/26 08:52:51;;;;;;;0.30;0.30;;;10.90;99.90;;;;;;4934619;28;20201;-62
2023/10/26 08:55:19;;;;;;;0.27;0.27;;;11.00;99.90;;;;;;4946512;28;20211;-72
2023/10/26 08:57:51;;;;;;;0.40;0.40;;;11.10;99.90;;;;;;4932408;29;20249;-62
2023/10/26 09:00:19;;;;;;;0.40;0.40;;;11.10;99.90;;;;;;4931537;28;20203;-63
2023/10/26 09:02:49;;;;;;;0.40;0.40;;;11.00;99.90;;;;;;4945629;28;20207;-63
2023/10/26 09:05:17;;;;;;;0.90;0.90;;;11.10;99.90;;;;;;4948589;28;20486;-61
2023/10/26 09:07:44;;;;;;;0.30;0.30;;;11.10;99.90;;;;;;4945343;28;20212;-63
2023/10/26 09:10:11;;;;;;;0.30;0.30;;;11.20;99.90;;;;;;4934487;29;20191;-61
2023/10/26 09:12:39;;;;;;;0.30;0.30;;;11.20;99.90;;;;;;4947695;28;20667;-62
2023/10/26 09:15:06;;;;;;;0.40;0.40;;;11.20;99.90;;;;;;4935205;29;20211;-62
2023/10/26 09:17:35;;;;;;;0.40;0.40;;;11.30;99.90;;;;;;4946862;28;20199;-70
2023/10/26 09:20:17;;;;;;;0.40;0.40;;;11.20;99.90;;;;;;4949401;28;20590;-62
2023/10/26 09:22:44;;;;;;;0.30;0.30;;;11.30;99.90;;;;;;4943374;28;20195;-66
2023/10/26 09:25:12;;;;;;;0.33;0.33;;;11.30;99.90;;;;;;4950873;28;20202;-61
2023/10/26 09:27:41;;;;;;;0.30;0.30;;;11.40;99.90;;;;;;4945609;28;20199;-60
2023/10/26 09:30:25;;;;;;;0.93;0.93;;;11.40;99.90;;;;;;4949667;28;20195;-62
2023/10/26 09:32:52;;;;;;;0.40;0.40;;;11.30;99.90;;;;;;4947119;29;20202;-62
2023/10/26 09:35:32;;;;;;;0.40;0.40;;;11.40;99.90;;;;;;4947018;28;20199;-62
2023/10/26 09:38:00;;;;;;;0.40;0.40;;;11.40;44.60;;;;;;4948777;28;20198;-62
2023/10/26 09:40:28;;;;;;;0.40;0.40;;;11.40;60.60;;;;;;4947966;28;20198;-63
2023/10/26 09:42:58;;;;;;;2.40;2.30;;;11.50;91.40;;;;;;4946847;28;20234;-63
2023/10/26 09:45:26;;;;;;;0.40;0.40;;;11.50;25.20;;;;;;4951296;28;20214;-78
2023/10/26 09:47:53;;;;;;;0.50;0.50;;;11.40;1.00;;;;;;4952284;28;20655;-63
2023/10/26 09:50:21;;;;;;;0.40;0.40;;;11.40;4.40;;;;;;4950799;28;20207;-64
2023/10/26 09:52:49;;;;;;;0.40;0.40;;;11.40;5.00;;;;;;4954557;28;20614;-64
2023/10/26 09:55:17;;;;;;;0.40;0.40;;;11.30;1.00;;;;;;4951392;28;20191;-64
2023/10/26 09:57:52;;;;;;;0.40;0.40;;;11.20;1.00;;;;;;4964529;28;20242;-61
2023/10/26 10:00:34;;;;;;;0.40;0.40;;;11.20;1.00;;;;;;4951230;28;20612;-62
2023/10/26 10:03:17;;;;;;;0.40;0.40;;;11.10;1.00;;;;;;4933784;28;20199;-62
2023/10/26 10:05:47;;;;;;;0.40;0.40;;;11.10;1.00;;;;;;4962470;28;20215;-62
2023/10/26 10:08:34;;;;;;;0.50;0.50;;;11.10;1.00;;;;;;4957289;28;20269;-62
2023/10/26 10:11:17;;;;;;;0.40;0.40;;;11.00;1.00;;;;;;4963040;28;20226;-62
2023/10/26 10:13:45;;;;;;;0.40;0.40;;;11.00;1.00;;;;;;4948665;28;20199;-62
2023/10/26 10:16:33;;;;;;;0.40;0.40;;;11.00;1.00;;;;;;4969249;28;20243;-62
2023/10/26 10:19:17;;;;;;;0.40;0.40;;;11.20;1.00;;;;;;4952809;28;20202;-63
2023/10/26 10:21:44;;;;;;;0.40;0.40;;;11.30;8.50;;;;;;4954401;28;20264;-70
2023/10/26 10:24:39;;;;;;;0.40;0.40;;;11.30;1.00;;;;;;4955246;28;20210;-66
2023/10/26 10:27:10;;;;;;;0.40;0.40;;;11.20;1.00;;;;;;4954779;28;20687;-64
2023/10/26 10:29:40;;;;;;;0.40;0.40;;;11.10;1.00;;;;;;4951193;28;21446;-62
2023/10/26 10:32:07;;;;;;;0.40;0.40;;;11.00;1.00;;;;;;4939687;28;20599;-64
2023/10/26 10:34:45;;;;;;;0.40;0.40;;;10.90;1.00;;;;;;4955755;28;20190;-68
2023/10/26 10:37:17;;;;;;;0.40;0.40;;;10.90;1.00;;;;;;4961495;28;20729;-62
2023/10/26 10:40:16;;;;;;;0.40;0.40;;;10.90;1.00;;;;;;4950935;28;20199;-62
2023/10/26 10:42:47;;;;;;;0.40;0.40;;;10.70;1.00;;;;;;4954902;28;20644;-68
2023/10/26 10:45:15;;;;;;;0.47;0.47;;;10.60;1.00;;;;;;4973577;28;20206;-66
2023/10/26 10:47:44;;;;;;;0.40;0.40;;;10.70;1.00;;;;;;4959219;28;20235;-63
2023/10/26 10:50:21;;;;;;;0.40;0.40;;;10.80;21.00;;;;;;4957171;28;20195;-62
2023/10/26 10:52:50;;;;;;;0.40;0.40;;;10.80;1.00;;;;;;4956724;28;20201;-63
2023/10/26 10:55:20;;;;;;;0.40;0.40;;;10.80;1.00;;;;;;4955948;28;20256;-62
2023/10/26 10:58:01;;;;;;;0.30;0.30;;;10.90;1.00;;;;;;4960866;28;20573;-63
2023/10/26 11:00:48;;;;;;;0.50;0.50;;;11.00;14.80;;;;;;4949510;28;20224;-66
2023/10/26 11:03:22;;;;;;;0.53;0.53;;;11.00;1.00;;;;;;4947418;28;20241;-62
2023/10/26 11:05:49;;;;;;;0.40;0.40;;;11.00;1.00;;;;;;4956275;28;20215;-62
2023/10/26 11:08:17;;;;;;;0.40;0.40;;;11.00;1.00;;;;;;4957705;28;20206;-63
2023/10/26 11:10:50;;;;;;;0.33;0.33;;;10.90;1.00;;;;;;4956602;28;20244;-62
2023/10/26 11:13:21;;;;;;;0.40;0.40;;;10.80;1.00;;;;;;4955215;28;20207;-62
2023/10/26 11:15:48;;;;;;;0.50;0.50;;;10.60;1.00;;;;;;4957269;28;20241;-63
2023/10/26 11:18:16;;;;;;;0.40;0.40;;;10.70;1.00;;;;;;4952856;28;20301;-62
2023/10/26 11:20:45;;;;;;;0.40;0.40;;;10.80;1.00;;;;;;4954313;28;20205;-63
2023/10/26 11:23:16;;;;;;;0.40;0.40;;;10.80;1.00;;;;;;4956111;28;20257;-62
2023/10/26 11:25:46;;;;;;;0.50;0.50;;;10.90;1.00;;;;;;4955645;28;20211;-64
2023/10/26 11:28:13;;;;;;;0.40;0.40;;;11.10;1.00;;;;;;4937614;28;20199;-63
2023/10/26 11:30:51;;;;;;;0.40;0.40;;;10.90;1.00;;;;;;4955977;28;20250;-63
2023/10/26 11:33:35;;;;;;;0.40;0.40;;;11.10;1.00;;;;;;4932877;28;20546;-63
2023/10/26 11:36:07;;;;;;;0.40;0.40;;;11.00;1.00;;;;;;4947877;29;20298;-63
2023/10/26 11:38:35;;;;;;;0.30;0.30;;;11.10;1.00;;;;;;4953409;28;20803;-63
2023/10/26 11:41:02;;;;;;;0.40;0.40;;;11.40;1.00;;;;;;4948927;28;20322;-63
2023/10/26 11:43:36;;;;;;;0.40;0.40;;;11.60;1.00;;;;;;4949474;28;20607;-62
2023/10/26 11:46:03;;;;;;;0.40;0.40;;;11.70;1.00;;;;;;4949068;29;20289;-63
2023/10/26 11:48:33;;;;;;;0.40;0.40;;;11.80;1.00;;;;;;4933368;29;20233;-63
2023/10/26 11:51:03;;;;;;;0.40;0.40;;;11.60;1.00;;;;;;4948082;28;20540;-67
2023/10/26 11:53:30;;;;;;;0.50;0.50;;;11.70;1.00;;;;;;4950289;28;20525;-63
2023/10/26 11:55:58;;;;;;;0.40;0.40;;;11.70;1.00;;;;;;4944832;28;20203;-62
2023/10/26 11:58:25;;;;;;;0.40;0.40;;;11.80;1.00;;;;;;4947696;28;22007;-62
2023/10/26 12:00:52;;;;;;;0.40;0.40;;;11.90;1.00;;;;;;4952221;28;20535;-75
2023/10/26 12:03:19;;;;;;;0.40;0.40;;;11.90;1.00;;;;;;4952710;28;20198;-61
2023/10/26 12:05:47;;;;;;;0.40;0.40;;;12.00;1.00;;;;;;4955301;28;20269;-61
2023/10/26 12:08:14;;;;;;;0.50;0.50;;;12.20;1.00;;;;;;4955815;28;20602;-61
2023/10/26 12:10:41;;;;;;;0.50;0.50;;;12.60;1.00;;;;;;4959288;28;20266;-67
2023/10/26 12:13:08;;;;;;;0.50;0.50;;;12.60;1.00;;;;;;4952551;28;20195;-62
2023/10/26 12:15:36;;;;;;;0.50;0.50;;;12.60;1.00;;;;;;4954896;28;20194;-63
2023/10/26 12:18:03;;;;;;;0.55;0.55;;;12.60;1.00;;;;;;4939549;28;20218;-63
2023/10/26 12:20:31;;;;;;;0.50;0.50;;;12.50;1.00;;;;;;4955721;28;20284;-63
2023/10/26 12:22:58;;;;;;;0.40;0.40;;;12.80;1.00;;;;;;4952027;28;20311;-63
2023/10/26 12:25:25;;;;;;;0.50;0.50;;;12.90;1.00;;;;;;4954785;28;20199;-64
2023/10/26 12:27:52;;;;;;;0.60;0.60;;;13.00;1.00;;;;;;4951846;28;20671;-63
2023/10/26 12:30:39;;;;;;;0.60;0.60;;;13.10;1.00;;;;;;4941228;29;20191;-65
2023/10/26 12:33:06;;;;;;;0.60;0.60;;;13.30;1.00;;;;;;4951780;28;20205;-63
2023/10/26 12:35:33;;;;;;;0.73;0.73;;;13.60;1.00;;;;;;4956627;28;20241;-63
2023/10/26 12:38:00;;;;;;;0.60;0.60;;;14.20;1.00;;;;;;4935965;28;20210;-62
2023/10/26 12:40:27;;;;;;;0.60;0.60;;;14.30;1.00;;;;;;4954310;28;20199;-63
2023/10/26 12:42:55;;;;;;;0.60;0.60;;;14.30;1.00;;;;;;4950754;28;20238;-63
2023/10/26 12:45:22;;;;;;;0.80;0.80;;;14.40;1.00;;;;;;4940799;29;20199;-64
2023/10/26 12:47:49;;;;;;;0.80;0.80;;;14.50;1.00;;;;;;4952204;28;20219;-76
2023/10/26 12:50:16;;;;;;;0.70;0.70;;;14.30;1.00;;;;;;4953654;28;20201;-62
2023/10/26 12:52:43;;;;;;;0.90;0.90;;;14.00;1.00;;;;;;4937002;29;20202;-62
2023/10/26 12:55:10;;;;;;;0.80;0.80;;;14.20;1.00;;;;;;4956166;28;20221;-63
2023/10/26 12:57:37;;;;;;;0.75;0.75;;;14.30;1.00;;;;;;4953046;28;20211;-62
2023/10/26 13:00:05;;;;;;;0.80;0.80;;;14.50;1.00;;;;;;4957443;28;20216;-61
2023/10/26 13:02:32;;;;;;;0.80;0.80;;;14.80;99.90;;;;;;4954043;28;20207;-61